Time;durP1;ratioP1;P1;durP2;ratioP2;P2;SDS_P1;SDS_P2;PMS_P1;PMS_P2;Temp;Humidity;BMP_temperature;BMP_pressure;BME280_temperature;BME280_humidity;BME280_pressure;Samples;Min_cycle;Max_cycle;Signal;HPM_P1;HPM_P2
2022/12/04 00:01:52;;;;;;;;;;;0.60;99.90;;;;;;5031947;28;19988;-82
2022/12/04 00:04:18;;;;;;;;;;;0.50;99.90;;;;;;5014406;28;19928;-81
2022/12/04 00:06:43;;;;;;;;;;;0.60;99.90;;;;;;5028711;28;19921;-82
2022/12/04 00:09:09;;;;;;;;;;;0.50;99.90;;;;;;5016514;28;19953;-87
2022/12/04 00:11:34;;;;;;;;;;;0.60;99.90;;;;;;5018261;28;19925;-82
2022/12/04 00:14:01;;;;;;;;;;;0.60;99.90;;;;;;5016817;28;19921;-81
2022/12/04 00:16:28;;;;;;;;;;;0.60;99.90;;;;;;5015636;28;20292;-82
2022/12/04 00:18:54;;;;;;;;;;;0.60;99.90;;;;;;5019083;28;19922;-81
2022/12/04 00:21:20;;;;;;;;;;;0.50;99.90;;;;;;5000361;28;19925;-82
2022/12/04 00:23:46;;;;;;;;;;;0.60;99.90;;;;;;5025438;28;19972;-82
2022/12/04 00:26:16;;;;;;;;;;;0.60;99.90;;;;;;5022018;28;20296;-82
2022/12/04 00:28:42;;;;;;;;;;;0.60;99.90;;;;;;5022128;28;19944;-81
2022/12/04 00:31:09;;;;;;;;;;;0.60;99.90;;;;;;4996163;28;19925;-84
2022/12/04 00:33:35;;;;;;;;;;;0.60;99.90;;;;;;5024100;28;20020;-83
2022/12/04 00:36:02;;;;;;;;;;;0.60;99.90;;;;;;5026732;28;20004;-83
2022/12/04 00:38:27;;;;;;;;;;;0.50;99.90;;;;;;5014867;28;19922;-81
2022/12/04 00:40:53;;;;;;;;;;;0.50;99.90;;;;;;5006724;28;19929;-84
2022/12/04 00:43:19;;;;;;;;;;;0.60;99.90;;;;;;5025285;28;19921;-81
2022/12/04 00:45:45;;;;;;;;;;;0.60;99.90;;;;;;5021102;28;19921;-81
2022/12/04 00:48:11;;;;;;;;;;;0.50;99.90;;;;;;5037180;28;19921;-81
2022/12/04 00:50:36;;;;;;;;;;;0.60;99.90;;;;;;5008241;28;19964;-81
2022/12/04 00:53:02;;;;;;;;;;;0.60;99.90;;;;;;5032053;28;19925;-83
2022/12/04 00:55:27;;;;;;;;;;;0.50;99.90;;;;;;4993555;28;19925;-84
2022/12/04 00:57:53;;;;;;;;;;;0.50;99.90;;;;;;5002588;28;20012;-81
2022/12/04 01:00:19;;;;;;;;;;;0.60;99.90;;;;;;5019275;28;19922;-81
2022/12/04 01:02:44;;;;;;;;;;;0.50;99.90;;;;;;5027598;28;19925;-81
2022/12/04 01:05:10;;;;;;;;;;;0.50;99.90;;;;;;5016031;28;20008;-81
2022/12/04 01:07:36;;;;;;;;;;;0.50;99.90;;;;;;5011899;28;19980;-83
2022/12/04 01:10:02;;;;;;;;;;;0.50;99.90;;;;;;5018601;28;19993;-81
2022/12/04 01:12:27;;;;;;;;;;;0.50;99.90;;;;;;5022225;28;20414;-82
2022/12/04 01:14:53;;;;;;;;;;;0.50;99.90;;;;;;5032405;28;19926;-81
2022/12/04 01:17:19;;;;;;;;;;;0.50;99.90;;;;;;5010074;28;20276;-81
2022/12/04 01:19:44;;;;;;;;;;;0.50;99.90;;;;;;5018225;28;20004;-84
2022/12/04 01:22:10;;;;;;;;;;;0.60;99.90;;;;;;5013518;28;19927;-82
2022/12/04 01:24:35;;;;;;;;;;;0.60;99.90;;;;;;5009311;28;19976;-81
2022/12/04 01:27:01;;;;;;;;;;;0.50;99.90;;;;;;5021563;28;19929;-82
2022/12/04 01:29:26;;;;;;;;;;;0.60;99.90;;;;;;5017937;28;19929;-84
2022/12/04 01:31:52;;;;;;;;;;;0.60;99.90;;;;;;5018011;28;19935;-84
2022/12/04 01:34:17;;;;;;;;;;;0.60;99.90;;;;;;5009868;28;20356;-82
2022/12/04 01:36:43;;;;;;;;;;;0.50;99.90;;;;;;5023034;28;19921;-82
2022/12/04 01:39:09;;;;;;;;;;;0.60;99.90;;;;;;5008956;28;19925;-82
2022/12/04 01:41:34;;;;;;;;;;;0.40;99.90;;;;;;5023085;28;19922;-82
2022/12/04 01:44:11;;;;;;;;;;;0.50;99.90;;;;;;5031945;28;19921;-82
2022/12/04 01:46:37;;;;;;;;;;;0.50;99.90;;;;;;5021847;28;19940;-81
2022/12/04 01:49:03;;;;;;;;;;;0.50;99.90;;;;;;5020426;28;19921;-82
2022/12/04 01:51:34;;;;;;;;;;;0.50;99.90;;;;;;5019742;28;20059;-86
2022/12/04 01:54:01;;;;;;;;;;;0.50;99.90;;;;;;5013137;28;19967;-81
2022/12/04 01:56:39;;;;;;;;;;;0.50;99.90;;;;;;5018628;28;19925;-81
2022/12/04 01:59:06;;;;;;;;;;;0.50;99.90;;;;;;5013938;28;19921;-82
2022/12/04 02:01:34;;;;;;;;;;;0.50;99.90;;;;;;5020500;28;19925;-82
2022/12/04 02:04:01;;;;;;;;;;;0.50;99.90;;;;;;5000049;28;20016;-84
2022/12/04 02:06:26;;;;;;;;;;;0.50;99.90;;;;;;5016587;28;20510;-82
2022/12/04 02:08:52;;;;;;;;;;;0.50;99.90;;;;;;5019552;28;19929;-84
2022/12/04 02:11:37;;;;;;;;;;;0.50;99.90;;;;;;5017613;28;19995;-82
2022/12/04 02:14:21;;;;;;;;;;;0.50;99.90;;;;;;5018038;28;19925;-82
2022/12/04 02:16:53;;;;;;;;;;;0.50;99.90;;;;;;5024337;28;19928;-85
2022/12/04 02:19:47;;;;;;;;;;;0.50;99.90;;;;;;5012813;28;19928;-81
2022/12/04 02:22:22;;;;;;;;;;;0.50;99.90;;;;;;5033571;28;19983;-89
2022/12/04 02:24:58;;;;;;;;;;;0.50;99.90;;;;;;5011108;28;20019;-82
2022/12/04 02:27:24;;;;;;;;;;;0.50;99.90;;;;;;5020943;28;19979;-81
2022/12/04 02:29:55;;;;;;;;;;;0.50;99.90;;;;;;5010588;28;20375;-81
2022/12/04 02:32:25;;;;;;;;;;;0.50;99.90;;;;;;5016592;28;19976;-83
2022/12/04 02:35:03;;;;;;;;;;;0.50;99.90;;;;;;5012669;28;19921;-81
2022/12/04 02:37:31;;;;;;;;;;;0.40;99.90;;;;;;5015944;28;19925;-81
2022/12/04 02:40:16;;;;;;;;;;;0.50;99.90;;;;;;5011187;28;19929;-81
2022/12/04 02:42:48;;;;;;;;;;;0.40;99.90;;;;;;5014644;28;19932;-81
2022/12/04 02:45:18;;;;;;;;;;;0.40;99.90;;;;;;5019668;28;19921;-81
2022/12/04 02:47:45;;;;;;;;;;;0.40;99.90;;;;;;5018381;28;20015;-82
2022/12/04 02:50:16;;;;;;;;;;;0.40;99.90;;;;;;5036174;28;19961;-83
2022/12/04 02:52:44;;;;;;;;;;;0.40;99.90;;;;;;5017748;28;19921;-81
2022/12/04 02:55:13;;;;;;;;;;;0.40;99.90;;;;;;5014373;28;19921;-81
2022/12/04 02:57:42;;;;;;;;;;;0.40;99.90;;;;;;5000025;28;19940;-89
2022/12/04 03:00:08;;;;;;;;;;;0.40;99.90;;;;;;5001624;28;19925;-82
2022/12/04 03:02:43;;;;;;;;;;;0.40;99.90;;;;;;5022509;28;19921;-81
2022/12/04 03:05:11;;;;;;;;;;;0.30;99.90;;;;;;5021127;28;19948;-81
2022/12/04 03:07:46;;;;;;;;;;;0.40;99.90;;;;;;5012691;28;19925;-81
2022/12/04 03:10:17;;;;;;;;;;;0.40;99.90;;;;;;5020565;28;20281;-82
2022/12/04 03:12:54;;;;;;;;;;;0.40;99.90;;;;;;5017291;28;20376;-81
2022/12/04 03:15:26;;;;;;;;;;;0.30;99.90;;;;;;5020875;28;20387;-82
2022/12/04 03:17:56;;;;;;;;;;;0.40;99.90;;;;;;5016159;28;19928;-81
2022/12/04 03:20:22;;;;;;;;;;;0.40;99.90;;;;;;5016446;28;19972;-81
2022/12/04 03:22:51;;;;;;;;;;;0.30;99.90;;;;;;5021133;28;19921;-84
2022/12/04 03:25:17;;;;;;;;;;;0.40;99.90;;;;;;4998155;28;19921;-81
2022/12/04 03:28:03;;;;;;;;;;;0.40;99.90;;;;;;5027746;28;20461;-84
2022/12/04 03:30:32;;;;;;;;;;;0.40;99.90;;;;;;5011577;28;20384;-85
2022/12/04 03:33:10;;;;;;;;;;;0.40;99.90;;;;;;5015390;28;19970;-82
2022/12/04 03:35:48;;;;;;;;;;;0.40;99.90;;;;;;5019432;28;19996;-82
2022/12/04 03:38:30;;;;;;;;;;;0.40;99.90;;;;;;4998418;28;20019;-82
2022/12/04 03:41:03;;;;;;;;;;;0.40;99.90;;;;;;5019713;28;19925;-82
2022/12/04 03:43:33;;;;;;;;;;;0.40;99.90;;;;;;5012924;28;19932;-81
2022/12/04 03:46:25;;;;;;;;;;;0.40;99.90;;;;;;5012634;28;20493;-81
2022/12/04 03:49:11;;;;;;;;;;;0.40;99.90;;;;;;5020636;28;19922;-81
2022/12/04 03:51:42;;;;;;;;;;;0.40;99.90;;;;;;5031930;28;20442;-81
2022/12/04 03:54:14;;;;;;;;;;;0.40;99.90;;;;;;5024194;28;20285;-82
2022/12/04 03:56:43;;;;;;;;;;;0.40;99.90;;;;;;5001373;28;19929;-81
2022/12/04 03:59:13;;;;;;;;;;;0.50;99.90;;;;;;5012874;28;20027;-81
2022/12/04 04:01:41;;;;;;;;;;;0.40;99.90;;;;;;5014184;28;19922;-82
2022/12/04 04:04:11;;;;;;;;;;;0.50;99.90;;;;;;5018720;28;20388;-81
2022/12/04 04:06:39;;;;;;;;;;;0.40;99.90;;;;;;5018901;28;19925;-81
2022/12/04 04:09:08;;;;;;;;;;;0.50;99.90;;;;;;5018938;28;20278;-81
2022/12/04 04:11:42;;;;;;;;;;;0.40;99.90;;;;;;5014100;28;19939;-82
2022/12/04 04:25:12;;;;;;;;;;;0.50;99.90;;;;;;5023162;28;20283;-81
2022/12/04 04:27:38;;;;;;;;;;;0.40;99.90;;;;;;5016254;28;19987;-81
2022/12/04 04:30:05;;;;;;;;;;;0.40;99.90;;;;;;5003510;28;20412;-81
2022/12/04 04:32:33;;;;;;;;;;;0.40;99.90;;;;;;5026294;28;19925;-85
2022/12/04 04:35:05;;;;;;;;;;;0.40;99.90;;;;;;5027973;28;19964;-82
2022/12/04 04:37:40;;;;;;;;;;;0.40;99.90;;;;;;5018847;28;19922;-82
2022/12/04 04:40:12;;;;;;;;;;;0.40;99.90;;;;;;5013678;28;19945;-81
2022/12/04 04:42:44;;;;;;;;;;;0.40;99.90;;;;;;5012323;28;19992;-85
2022/12/04 04:45:22;;;;;;;;;;;0.40;99.90;;;;;;5008676;28;19925;-81
2022/12/04 04:48:11;;;;;;;;;;;0.40;99.90;;;;;;5013279;28;19928;-82
2022/12/04 04:50:37;;;;;;;;;;;0.40;99.90;;;;;;5014725;28;19926;-81
2022/12/04 04:53:05;;;;;;;;;;;0.50;99.90;;;;;;5020356;28;20358;-81
2022/12/04 04:55:33;;;;;;;;;;;0.40;99.90;;;;;;5015198;28;19932;-83
2022/12/04 04:58:09;;;;;;;;;;;0.40;99.90;;;;;;5027646;28;20403;-81
2022/12/04 05:00:35;;;;;;;;;;;0.40;99.90;;;;;;5015533;28;19928;-81
2022/12/04 05:03:00;;;;;;;;;;;0.40;99.90;;;;;;5013008;28;19937;-83
2022/12/04 05:05:26;;;;;;;;;;;0.50;99.90;;;;;;5014360;28;19925;-81
2022/12/04 05:07:52;;;;;;;;;;;0.40;99.90;;;;;;5027605;28;19931;-81
2022/12/04 05:10:17;;;;;;;;;;;0.40;99.90;;;;;;4998294;28;20637;-87
2022/12/04 05:12:46;;;;;;;;;;;0.40;99.90;;;;;;5012450;28;20012;-84
2022/12/04 05:15:11;;;;;;;;;;;0.40;99.90;;;;;;5033075;28;20019;-81
2022/12/04 05:17:37;;;;;;;;;;;0.30;99.90;;;;;;5017854;28;19921;-81
2022/12/04 05:20:03;;;;;;;;;;;0.40;99.90;;;;;;5017406;28;19921;-80
2022/12/04 05:22:30;;;;;;;;;;;0.40;99.90;;;;;;5018556;28;19979;-82
2022/12/04 05:24:56;;;;;;;;;;;0.40;99.90;;;;;;5020581;28;19925;-81
2022/12/04 05:27:24;;;;;;;;;;;0.30;99.90;;;;;;5022095;28;19948;-84
2022/12/04 05:29:51;;;;;;;;;;;0.40;99.90;;;;;;5010039;28;19920;-81
2022/12/04 05:32:17;;;;;;;;;;;0.40;99.90;;;;;;5039602;28;20504;-81
2022/12/04 05:34:46;;;;;;;;;;;0.40;99.90;;;;;;5007890;28;20333;-82
2022/12/04 05:37:11;;;;;;;;;;;0.40;99.90;;;;;;5019860;28;19922;-82
2022/12/04 05:39:37;;;;;;;;;;;0.40;99.90;;;;;;5020774;28;19926;-82
2022/12/04 05:42:03;;;;;;;;;;;0.50;99.90;;;;;;5013637;28;19925;-82
2022/12/04 05:44:29;;;;;;;;;;;0.40;99.90;;;;;;5022526;28;19975;-82
2022/12/04 05:46:54;;;;;;;;;;;0.30;99.90;;;;;;5003547;28;19935;-81
2022/12/04 05:49:20;;;;;;;;;;;0.40;99.90;;;;;;5026823;28;20295;-81
2022/12/04 05:51:45;;;;;;;;;;;0.50;99.90;;;;;;5023852;28;19925;-82
2022/12/04 05:54:11;;;;;;;;;;;0.40;99.90;;;;;;5012555;28;19996;-82
2022/12/04 05:56:36;;;;;;;;;;;0.40;99.90;;;;;;5022314;28;20004;-82
2022/12/04 05:59:02;;;;;;;;;;;0.40;99.90;;;;;;5019798;28;20277;-82
2022/12/04 06:01:29;;;;;;;;;;;0.40;99.90;;;;;;5036522;28;19921;-82
2022/12/04 06:03:55;;;;;;;;;;;0.30;99.90;;;;;;5019313;28;19926;-81
2022/12/04 06:06:22;;;;;;;;;;;0.30;99.90;;;;;;5019099;28;19925;-82
2022/12/04 06:08:48;;;;;;;;;;;0.30;99.90;;;;;;5015587;28;19922;-82
2022/12/04 06:11:15;;;;;;;;;;;0.30;99.90;;;;;;5016754;28;19921;-81
2022/12/04 06:13:42;;;;;;;;;;;0.40;99.90;;;;;;5019234;28;19947;-82
2022/12/04 06:16:15;;;;;;;;;;;0.30;99.90;;;;;;5019598;28;19928;-86
2022/12/04 06:18:41;;;;;;;;;;;0.30;99.90;;;;;;5022510;28;19928;-82
2022/12/04 06:21:07;;;;;;;;;;;0.30;99.90;;;;;;5018778;28;20368;-82
2022/12/04 06:23:33;;;;;;;;;;;0.30;99.90;;;;;;5013452;28;19940;-89
2022/12/04 06:26:05;;;;;;;;;;;0.40;99.90;;;;;;5012520;28;19958;-82
2022/12/04 06:28:31;;;;;;;;;;;0.30;99.90;;;;;;5010806;28;19967;-81
2022/12/04 06:30:59;;;;;;;;;;;0.40;99.90;;;;;;5005204;28;20343;-81
2022/12/04 06:33:31;;;;;;;;;;;0.40;99.90;;;;;;5018630;28;20447;-81
2022/12/04 06:36:00;;;;;;;;;;;0.40;99.90;;;;;;4994313;28;19925;-86
2022/12/04 06:38:26;;;;;;;;;;;0.40;99.90;;;;;;4996757;28;19984;-81
2022/12/04 06:40:52;;;;;;;;;;;0.50;99.90;;;;;;5016197;28;19921;-81
2022/12/04 06:43:17;;;;;;;;;;;0.40;99.90;;;;;;5015938;28;19972;-81
2022/12/04 06:45:43;;;;;;;;;;;0.30;99.90;;;;;;5032732;28;19920;-81
2022/12/04 06:48:08;;;;;;;;;;;0.40;99.90;;;;;;5036266;28;20020;-82
2022/12/04 06:50:34;;;;;;;;;;;0.40;99.90;;;;;;5011614;28;19925;-82
2022/12/04 06:53:00;;;;;;;;;;;0.40;99.90;;;;;;5015229;28;20015;-82
2022/12/04 06:55:25;;;;;;;;;;;0.30;99.90;;;;;;5038743;28;19926;-82
2022/12/04 06:57:51;;;;;;;;;;;0.40;99.90;;;;;;5019681;28;20021;-81
2022/12/04 07:00:17;;;;;;;;;;;0.40;99.90;;;;;;5021672;28;19948;-81
2022/12/04 07:02:48;;;;;;;;;;;0.40;99.90;;;;;;5022507;28;20442;-82
2022/12/04 07:05:13;;;;;;;;;;;0.40;99.90;;;;;;5007335;28;19926;-84
2022/12/04 07:07:39;;;;;;;;;;;0.40;99.90;;;;;;5016405;28;19976;-81
2022/12/04 07:10:05;;;;;;;;;;;0.40;99.90;;;;;;5021434;28;20028;-82
2022/12/04 07:12:32;;;;;;;;;;;0.30;99.90;;;;;;5014658;28;20047;-81
2022/12/04 07:14:59;;;;;;;;;;;0.30;99.90;;;;;;4992401;28;20338;-82
2022/12/04 07:17:24;;;;;;;;;;;0.30;99.90;;;;;;4999711;28;19944;-84
2022/12/04 07:19:50;;;;;;;;;;;0.30;99.90;;;;;;5017012;28;19925;-81
2022/12/04 07:22:17;;;;;;;;;;;0.30;99.90;;;;;;5006364;28;19936;-86
2022/12/04 07:24:44;;;;;;;;;;;0.40;99.90;;;;;;5023658;28;20372;-81
2022/12/04 07:27:09;;;;;;;;;;;0.40;99.90;;;;;;5014908;28;19972;-81
2022/12/04 07:29:35;;;;;;;;;;;0.40;99.90;;;;;;5018210;28;19968;-81
2022/12/04 07:32:03;;;;;;;;;;;0.40;99.90;;;;;;5006251;28;19921;-81
2022/12/04 07:34:29;;;;;;;;;;;0.40;99.90;;;;;;5015340;28;19955;-83
2022/12/04 07:36:55;;;;;;;;;;;0.30;99.90;;;;;;5013863;28;19973;-82
2022/12/04 07:39:22;;;;;;;;;;;0.30;99.90;;;;;;5006528;28;19939;-84
2022/12/04 07:41:47;;;;;;;;;;;0.30;99.90;;;;;;5035032;28;19925;-82
2022/12/04 07:44:15;;;;;;;;;;;0.30;99.90;;;;;;5017710;28;20395;-86
2022/12/04 07:46:59;;;;;;;;;;;0.30;99.90;;;;;;5022981;28;19932;-82
2022/12/04 07:49:25;;;;;;;;;;;0.30;99.90;;;;;;5023165;28;19921;-81
2022/12/04 07:51:51;;;;;;;;;;;0.30;99.90;;;;;;5015244;28;20019;-83
2022/12/04 07:54:16;;;;;;;;;;;0.20;99.90;;;;;;5031444;28;19932;-82
2022/12/04 07:56:42;;;;;;;;;;;0.30;99.90;;;;;;5010686;28;19929;-82
2022/12/04 07:59:10;;;;;;;;;;;0.30;99.90;;;;;;5019224;28;19941;-82
2022/12/04 08:01:36;;;;;;;;;;;0.30;99.90;;;;;;5014286;28;19929;-81
2022/12/04 08:04:03;;;;;;;;;;;0.20;99.90;;;;;;5021238;28;20008;-81
2022/12/04 08:06:31;;;;;;;;;;;0.30;99.90;;;;;;5026370;28;20308;-81
2022/12/04 08:08:56;;;;;;;;;;;0.30;99.90;;;;;;5015012;28;20007;-81
2022/12/04 08:11:24;;;;;;;;;;;0.30;99.90;;;;;;4990759;28;19971;-81
2022/12/04 08:13:56;;;;;;;;;;;0.20;99.90;;;;;;5020918;28;19921;-81
2022/12/04 08:16:29;;;;;;;;;;;0.20;99.90;;;;;;5013024;28;20422;-81
2022/12/04 08:18:55;;;;;;;;;;;0.30;99.90;;;;;;5020569;28;20296;-81
2022/12/04 08:21:21;;;;;;;;;;;0.30;99.90;;;;;;5019734;28;20271;-81
2022/12/04 08:23:49;;;;;;;;;;;0.30;99.90;;;;;;5017055;28;19925;-82
2022/12/04 08:26:15;;;;;;;;;;;0.30;99.90;;;;;;5013573;28;19937;-81
2022/12/04 08:28:41;;;;;;;;;;;0.30;99.90;;;;;;5017425;28;20042;-82
2022/12/04 08:31:09;;;;;;;;;;;0.30;99.90;;;;;;5013908;28;19930;-81
2022/12/04 08:33:35;;;;;;;;;;;0.30;99.90;;;;;;5013188;28;19921;-81
2022/12/04 08:36:01;;;;;;;;;;;0.40;99.90;;;;;;5029819;28;19931;-85
2022/12/04 08:38:26;;;;;;;;;;;0.40;99.90;;;;;;5019306;28;19925;-81
2022/12/04 08:40:52;;;;;;;;;;;0.40;99.90;;;;;;5008184;28;19929;-81
2022/12/04 08:43:17;;;;;;;;;;;0.40;99.90;;;;;;5018550;28;19968;-81
2022/12/04 08:45:43;;;;;;;;;;;0.40;99.90;;;;;;5001959;28;20007;-81
2022/12/04 08:48:08;;;;;;;;;;;0.50;99.90;;;;;;5005230;28;19925;-81
2022/12/04 08:50:34;;;;;;;;;;;0.40;99.90;;;;;;5028080;28;20234;-81
2022/12/04 08:52:59;;;;;;;;;;;0.50;99.90;;;;;;5003988;28;19921;-83
2022/12/04 08:55:25;;;;;;;;;;;0.50;99.90;;;;;;5034576;28;19925;-82
2022/12/04 08:57:54;;;;;;;;;;;0.50;99.90;;;;;;5040933;28;19968;-85
2022/12/04 09:00:19;;;;;;;;;;;0.40;99.90;;;;;;5007193;28;20341;-82
2022/12/04 09:02:47;;;;;;;;;;;0.50;99.90;;;;;;5016313;28;19932;-80
2022/12/04 09:05:13;;;;;;;;;;;0.50;99.90;;;;;;5018673;28;19921;-82
2022/12/04 09:07:38;;;;;;;;;;;0.50;99.90;;;;;;5016717;28;19936;-84
2022/12/04 09:10:04;;;;;;;;;;;0.60;99.90;;;;;;5016822;28;19975;-83
2022/12/04 09:12:30;;;;;;;;;;;0.50;99.90;;;;;;5024546;28;20273;-81
2022/12/04 09:14:55;;;;;;;;;;;0.60;99.90;;;;;;5020639;28;19932;-85
2022/12/04 09:17:21;;;;;;;;;;;0.60;99.90;;;;;;5041907;28;20455;-81
2022/12/04 09:19:46;;;;;;;;;;;0.60;99.90;;;;;;5051508;28;19995;-82
2022/12/04 09:22:12;;;;;;;;;;;0.60;99.90;;;;;;5037266;28;19927;-81
2022/12/04 09:24:37;;;;;;;;;;;0.60;99.90;;;;;;5032966;28;19953;-81
2022/12/04 09:27:03;;;;;;;;;;;0.60;99.90;;;;;;5050249;28;19921;-81
2022/12/04 09:29:28;;;;;;;;;;;0.60;99.90;;;;;;5035799;28;19975;-81
2022/12/04 09:31:54;;;;;;;;;;;0.70;99.90;;;;;;5045326;28;20425;-82
2022/12/04 09:34:19;;;;;;;;;;;0.70;99.90;;;;;;5024683;28;20369;-82
2022/12/04 09:36:45;;;;;;;;;;;0.70;99.90;;;;;;5010737;28;19976;-82
2022/12/04 09:39:11;;;;;;;;;;;0.70;99.90;;;;;;5021382;28;19921;-81
2022/12/04 09:41:55;;;;;;;;;;;0.80;99.90;;;;;;5005828;28;19929;-90
2022/12/04 09:44:47;;;;;;;;;;;0.80;99.90;;;;;;5037114;28;20245;-81
2022/12/04 09:47:12;;;;;;;;;;;0.80;99.90;;;;;;5027742;28;19975;-85
2022/12/04 09:49:53;;;;;;;;;;;0.80;99.90;;;;;;5042302;28;19924;-81
2022/12/04 09:52:41;;;;;;;;;;;0.80;99.90;;;;;;5022012;28;19928;-82
2022/12/04 09:55:11;;;;;;;;;;;0.90;99.90;;;;;;5015561;28;19972;-81
2022/12/04 09:57:37;;;;;;;;;;;0.90;99.90;;;;;;5015259;28;19925;-81
2022/12/04 10:00:04;;;;;;;;;;;0.90;99.90;;;;;;5014498;28;20421;-81
2022/12/04 10:02:36;;;;;;;;;;;0.90;99.90;;;;;;5014393;28;20467;-81
2022/12/04 10:05:02;;;;;;;;;;;1.00;99.90;;;;;;5014143;28;19995;-81
2022/12/04 10:07:32;;;;;;;;;;;1.00;99.90;;;;;;5041928;28;19921;-81
2022/12/04 10:10:01;;;;;;;;;;;1.00;99.90;;;;;;5034749;28;19921;-81
2022/12/04 10:12:30;;;;;;;;;;;1.00;99.90;;;;;;5034656;28;20295;-82
2022/12/04 10:15:02;;;;;;;;;;;1.10;99.90;;;;;;5050262;28;19963;-81
2022/12/04 10:17:46;;;;;;;;;;;1.10;99.90;;;;;;5032391;28;19921;-81
2022/12/04 10:20:27;;;;;;;;;;;1.10;99.90;;;;;;5050260;28;19925;-81
2022/12/04 10:23:01;;;;;;;;;;;1.10;99.90;;;;;;5020138;28;19928;-81
2022/12/04 10:25:27;;;;;;;;;;;1.20;99.90;;;;;;5030416;28;19971;-81
2022/12/04 10:28:03;;;;;;;;;;;1.20;99.90;;;;;;5022476;28;19944;-81
2022/12/04 10:30:29;;;;;;;;;;;1.20;99.90;;;;;;5030266;28;19979;-81
2022/12/04 10:33:10;;;;;;;;;;;1.30;99.90;;;;;;5031393;28;19967;-81
2022/12/04 10:35:36;;;;;;;;;;;1.30;99.90;;;;;;5013286;28;20353;-81
2022/12/04 10:38:03;;;;;;;;;;;1.20;99.90;;;;;;5003449;28;19922;-81
2022/12/04 10:40:32;;;;;;;;;;;1.30;99.90;;;;;;5032149;28;19921;-81
2022/12/04 10:43:17;;;;;;;;;;;1.30;99.90;;;;;;5014565;28;19929;-85
2022/12/04 10:45:43;;;;;;;;;;;1.30;99.90;;;;;;5012977;28;19980;-81
2022/12/04 10:48:20;;;;;;;;;;;1.30;99.90;;;;;;5017480;28;19972;-82
2022/12/04 10:50:46;;;;;;;;;;;1.30;99.90;;;;;;5018668;28;19957;-82
2022/12/04 10:53:13;;;;;;;;;;;1.30;99.90;;;;;;5014587;28;19967;-84
2022/12/04 10:55:39;;;;;;;;;;;1.30;99.90;;;;;;5014233;28;20357;-82
2022/12/04 10:58:14;;;;;;;;;;;1.30;99.90;;;;;;5038860;28;20036;-82
2022/12/04 11:00:39;;;;;;;;;;;1.40;99.90;;;;;;5013126;28;19971;-82
2022/12/04 11:03:18;;;;;;;;;;;1.40;99.90;;;;;;5029702;28;19965;-82
2022/12/04 11:05:50;;;;;;;;;;;1.40;99.90;;;;;;5014215;28;20020;-82
2022/12/04 11:08:21;;;;;;;;;;;1.60;99.90;;;;;;5013912;28;20012;-82
2022/12/04 11:10:55;;;;;;;;;;;1.50;99.90;;;;;;5013125;28;19951;-82
2022/12/04 11:13:22;;;;;;;;;;;1.50;99.90;;;;;;5012806;28;19928;-82
2022/12/04 11:15:51;;;;;;;;;;;1.50;99.90;;;;;;5029107;28;19971;-82
2022/12/04 11:18:19;;;;;;;;;;;1.60;99.90;;;;;;5029483;28;19972;-82
2022/12/04 11:20:53;;;;;;;;;;;1.60;99.90;;;;;;5012656;28;19922;-82
2022/12/04 11:23:21;;;;;;;;;;;1.60;99.90;;;;;;5023344;28;19979;-83
2022/12/04 11:25:49;;;;;;;;;;;1.70;99.90;;;;;;5012640;28;20007;-85
2022/12/04 11:28:20;;;;;;;;;;;1.70;99.90;;;;;;5013760;28;19977;-82
2022/12/04 11:30:48;;;;;;;;;;;1.70;99.90;;;;;;5013161;28;19921;-82
2022/12/04 11:33:15;;;;;;;;;;;1.70;99.90;;;;;;5012518;28;20269;-81
2022/12/04 11:35:41;;;;;;;;;;;1.80;99.90;;;;;;5021919;28;19921;-82
2022/12/04 11:38:14;;;;;;;;;;;1.80;99.90;;;;;;5033314;28;20074;-82
2022/12/04 11:40:53;;;;;;;;;;;1.80;99.90;;;;;;5027312;28;20267;-83
2022/12/04 11:43:19;;;;;;;;;;;1.90;99.90;;;;;;5038737;28;20394;-81
2022/12/04 11:45:55;;;;;;;;;;;2.00;99.90;;;;;;5013843;28;19922;-82
2022/12/04 11:48:21;;;;;;;;;;;1.90;99.90;;;;;;5006291;28;19921;-81
2022/12/04 11:50:51;;;;;;;;;;;2.00;99.90;;;;;;5010284;28;19929;-82
2022/12/04 11:53:20;;;;;;;;;;;2.00;99.90;;;;;;5040315;28;20416;-81
2022/12/04 11:56:04;;;;;;;;;;;2.10;99.90;;;;;;5014097;28;19972;-82
2022/12/04 11:58:45;;;;;;;;;;;2.10;99.90;;;;;;5036191;28;20327;-83
2022/12/04 12:01:23;;;;;;;;;;;2.10;99.90;;;;;;5016205;28;19969;-81
2022/12/04 12:03:58;;;;;;;;;;;2.10;99.90;;;;;;5013344;28;19990;-82
2022/12/04 12:06:49;;;;;;;;;;;2.20;99.90;;;;;;5012376;28;19917;-82
2022/12/04 12:09:28;;;;;;;;;;;2.20;99.90;;;;;;5030268;28;19928;-83
2022/12/04 12:11:59;;;;;;;;;;;2.20;99.90;;;;;;5034583;28;19929;-82
2022/12/04 12:14:31;;;;;;;;;;;2.30;99.90;;;;;;5048663;28;19956;-81
2022/12/04 12:17:06;;;;;;;;;;;2.30;99.90;;;;;;5029296;28;19972;-82
2022/12/04 12:19:57;;;;;;;;;;;2.30;99.90;;;;;;4997899;28;19921;-84
2022/12/04 12:22:24;;;;;;;;;;;2.40;99.90;;;;;;5012189;28;20006;-82
2022/12/04 12:25:04;;;;;;;;;;;2.40;99.90;;;;;;5015367;28;20299;-81
2022/12/04 12:27:30;;;;;;;;;;;2.40;99.90;;;;;;5032364;28;20372;-82
2022/12/04 12:29:55;;;;;;;;;;;2.50;99.90;;;;;;5039613;28;19972;-81
2022/12/04 12:32:21;;;;;;;;;;;2.40;99.90;;;;;;4995651;28;19923;-81
2022/12/04 12:34:48;;;;;;;;;;;2.50;99.90;;;;;;5011923;28;19995;-82
2022/12/04 12:37:20;;;;;;;;;;;2.50;99.90;;;;;;5012875;28;19928;-82
2022/12/04 12:40:04;;;;;;;;;;;2.50;99.90;;;;;;5011981;28;19917;-81
2022/12/04 12:42:50;;;;;;;;;;;2.60;99.90;;;;;;5031452;28;20302;-82
2022/12/04 12:45:25;;;;;;;;;;;2.50;99.90;;;;;;5032516;28;19983;-83
2022/12/04 12:47:54;;;;;;;;;;;2.60;99.90;;;;;;5031358;28;19959;-82
2022/12/04 12:50:25;;;;;;;;;;;2.50;99.90;;;;;;5028827;28;19951;-81
2022/12/04 12:53:09;;;;;;;;;;;2.50;99.90;;;;;;5011447;28;19917;-81
2022/12/04 12:55:37;;;;;;;;;;;2.50;99.90;;;;;;5011565;28;19928;-82
2022/12/04 12:58:03;;;;;;;;;;;2.50;99.90;;;;;;5012743;28;19921;-81
2022/12/04 13:00:30;;;;;;;;;;;2.50;99.90;;;;;;5027824;28;19924;-82
2022/12/04 13:03:02;;;;;;;;;;;2.50;99.90;;;;;;5012679;28;19921;-82
2022/12/04 13:05:39;;;;;;;;;;;2.50;99.90;;;;;;5011258;28;19917;-83
2022/12/04 13:08:14;;;;;;;;;;;2.50;99.90;;;;;;5012556;28;19979;-82
2022/12/04 13:10:45;;;;;;;;;;;2.50;99.90;;;;;;5010590;28;19940;-84
2022/12/04 13:13:18;;;;;;;;;;;2.50;99.90;;;;;;5013682;28;19936;-80
2022/12/04 13:15:48;;;;;;;;;;;2.50;99.90;;;;;;5018540;28;19996;-80
2022/12/04 13:18:23;;;;;;;;;;;2.50;99.90;;;;;;5011803;28;19921;-81
2022/12/04 13:20:51;;;;;;;;;;;2.50;99.90;;;;;;5034597;28;19936;-81
2022/12/04 13:23:17;;;;;;;;;;;2.50;99.90;;;;;;5007570;28;19928;-81
2022/12/04 13:25:49;;;;;;;;;;;2.50;99.90;;;;;;5029585;28;19932;-81
2022/12/04 13:28:20;;;;;;;;;;;2.50;99.90;;;;;;5012658;28;19917;-81
2022/12/04 13:30:46;;;;;;;;;;;2.50;99.90;;;;;;5012660;28;19929;-83
2022/12/04 13:33:14;;;;;;;;;;;2.40;99.90;;;;;;5012871;28;19939;-82
2022/12/04 13:36:09;;;;;;;;;;;2.40;99.90;;;;;;5036033;28;20410;-84
2022/12/04 13:38:53;;;;;;;;;;;2.40;99.90;;;;;;5022279;28;20360;-81
2022/12/04 13:41:20;;;;;;;;;;;2.40;99.90;;;;;;5050566;28;20012;-82
2022/12/04 13:43:47;;;;;;;;;;;2.40;99.90;;;;;;5040537;28;20169;-80
2022/12/04 13:46:24;;;;;;;;;;;2.40;99.90;;;;;;5046994;28;20003;-81
2022/12/04 13:48:49;;;;;;;;;;;2.40;99.90;;;;;;5031086;28;19917;-83
2022/12/04 13:51:23;;;;;;;;;;;2.40;99.90;;;;;;5032795;28;19982;-82
2022/12/04 13:53:59;;;;;;;;;;;2.40;99.90;;;;;;5023094;28;19917;-81
2022/12/04 13:56:26;;;;;;;;;;;2.50;99.90;;;;;;5020942;28;19917;-81
2022/12/04 13:59:03;;;;;;;;;;;2.40;99.90;;;;;;5017748;28;19921;-81
2022/12/04 14:01:39;;;;;;;;;;;2.40;99.90;;;;;;5035287;28;19917;-82
2022/12/04 14:04:05;;;;;;;;;;;2.40;99.90;;;;;;5019869;28;20023;-83
2022/12/04 14:06:36;;;;;;;;;;;2.40;99.90;;;;;;5016997;28;20348;-81
2022/12/04 14:09:04;;;;;;;;;;;2.40;99.90;;;;;;5034930;28;19917;-81
2022/12/04 14:11:38;;;;;;;;;;;2.40;99.90;;;;;;5034000;28;19917;-81
2022/12/04 14:14:05;;;;;;;;;;;2.40;99.90;;;;;;5038064;28;19918;-82
2022/12/04 14:16:35;;;;;;;;;;;2.40;99.90;;;;;;5021683;28;19925;-81
2022/12/04 14:19:02;;;;;;;;;;;2.40;99.90;;;;;;5021516;28;19929;-82
2022/12/04 14:21:41;;;;;;;;;;;2.40;99.90;;;;;;5035765;28;20407;-80
2022/12/04 14:24:17;;;;;;;;;;;2.50;99.90;;;;;;5033149;28;19921;-81
2022/12/04 14:26:49;;;;;;;;;;;2.40;99.90;;;;;;5019115;28;19917;-81
2022/12/04 14:29:35;;;;;;;;;;;2.40;99.90;;;;;;5031680;28;20312;-81
2022/12/04 14:32:12;;;;;;;;;;;2.40;99.90;;;;;;5014950;28;19917;-80
2022/12/04 14:34:38;;;;;;;;;;;2.40;99.90;;;;;;5036818;28;20372;-82
2022/12/04 14:37:04;;;;;;;;;;;2.50;99.90;;;;;;5023362;28;19917;-81
2022/12/04 14:39:35;;;;;;;;;;;2.40;99.90;;;;;;5025499;28;19968;-81
2022/12/04 14:42:05;;;;;;;;;;;2.40;99.90;;;;;;5049896;28;19917;-81
2022/12/04 14:44:31;;;;;;;;;;;2.40;99.90;;;;;;5023342;28;19917;-82
2022/12/04 14:47:19;;;;;;;;;;;2.40;99.90;;;;;;5017846;28;20135;-81
2022/12/04 14:49:52;;;;;;;;;;;2.40;99.90;;;;;;5016550;28;19960;-83
2022/12/04 14:52:31;;;;;;;;;;;2.40;99.90;;;;;;5034288;28;19917;-82
2022/12/04 14:55:20;;;;;;;;;;;2.40;99.90;;;;;;5031670;28;20016;-82
2022/12/04 14:57:45;;;;;;;;;;;2.40;99.90;;;;;;5010764;28;19925;-78